createdAt,value
2023-05-02T00:01:53.939Z,101276.44
2023-05-02T00:04:22.312Z,101281.81
2023-05-02T00:06:50.202Z,101274.84
2023-05-02T00:09:17.992Z,101268.94
2023-05-02T00:11:47.177Z,101270.06
2023-05-02T00:14:14.908Z,101268.28
2023-05-02T00:16:42.661Z,101265.28
2023-05-02T00:19:10.409Z,101267.34
2023-05-02T00:21:38.188Z,101267.22
2023-05-02T00:24:06.828Z,101268.53
2023-05-02T00:26:34.558Z,101267.66
2023-05-02T00:29:03.691Z,101253.66
2023-05-02T00:31:31.485Z,101249.56
2023-05-02T00:33:59.417Z,101247.44
2023-05-02T00:36:27.444Z,101246.81
2023-05-02T00:38:55.190Z,101242.31
2023-05-02T00:41:22.943Z,101251.47
2023-05-02T00:43:50.675Z,101243.22
2023-05-02T00:46:19.821Z,101244.28
2023-05-02T00:48:47.707Z,101241.94
2023-05-02T00:51:15.452Z,101246.34
2023-05-02T00:53:43.419Z,101242.88
2023-05-02T00:56:11.202Z,101237.00
2023-05-02T00:58:40.910Z,101240.69
2023-05-02T01:01:17.623Z,101242.81
2023-05-02T01:04:02.285Z,101240.16
2023-05-02T01:06:41.744Z,101246.75
2023-05-02T01:09:23.693Z,101226.19
2023-05-02T01:11:58.160Z,101228.75
2023-05-02T01:14:28.788Z,101223.34
2023-05-02T01:16:59.959Z,101220.09
2023-05-02T01:19:34.965Z,101219.47
2023-05-02T01:22:05.971Z,101204.53
2023-05-02T01:24:42.302Z,101211.13
2023-05-02T01:27:19.340Z,101194.56
2023-05-02T01:29:52.097Z,101192.38
2023-05-02T01:32:23.606Z,101152.41
2023-05-02T01:34:53.911Z,101151.88
2023-05-02T01:37:23.615Z,101163.69
2023-05-02T01:39:53.282Z,101141.47
2023-05-02T01:42:22.134Z,101116.38
2023-05-02T01:44:52.800Z,101115.91
2023-05-02T01:47:23.069Z,101102.59
2023-05-02T01:49:51.154Z,101069.19
2023-05-02T01:52:22.881Z,101042.38
2023-05-02T01:54:53.039Z,101016.91
2023-05-02T01:57:21.122Z,101018.25
2023-05-02T01:59:52.931Z,100971.13
2023-05-02T02:02:21.691Z,100973.09
2023-05-02T02:04:50.867Z,100888.97
2023-05-02T02:07:18.817Z,100845.72
2023-05-02T02:09:46.539Z,100829.44
2023-05-02T02:12:23.468Z,100799.81
2023-05-02T02:15:01.648Z,100807.72
2023-05-02T02:17:37.376Z,100816.31
2023-05-02T02:20:08.029Z,100823.81
2023-05-02T02:22:38.435Z,100830.94
2023-05-02T02:25:08.832Z,100826.78
2023-05-02T02:27:38.325Z,100839.41
2023-05-02T02:30:09.430Z,100836.72
2023-05-02T02:32:37.749Z,100824.09
2023-05-02T02:35:07.056Z,100838.56
2023-05-02T02:37:38.882Z,100842.50
2023-05-02T02:40:13.685Z,100846.31
2023-05-02T02:42:47.074Z,100862.09
2023-05-02T02:45:31.134Z,100865.97
2023-05-02T02:48:09.644Z,100896.50
2023-05-02T02:50:44.224Z,100891.59
2023-05-02T02:53:20.469Z,100886.66
2023-05-02T02:55:54.452Z,100901.03
2023-05-02T02:58:30.705Z,100894.69
2023-05-02T03:01:04.010Z,100919.03
2023-05-02T03:03:33.633Z,100933.78
2023-05-02T03:06:01.930Z,100931.59
2023-05-02T03:08:40.056Z,100935.06
2023-05-02T03:11:08.181Z,100925.66
2023-05-02T03:13:36.388Z,100942.38
2023-05-02T03:16:30.979Z,100891.31
2023-05-02T03:18:58.767Z,100869.16
2023-05-02T03:21:26.521Z,100871.50
2023-05-02T03:23:54.267Z,100859.91
2023-05-02T03:26:22.255Z,100828.47
2023-05-02T03:28:51.421Z,100819.44
2023-05-02T03:31:20.620Z,100809.38
2023-05-02T03:33:48.436Z,100817.91
2023-05-02T03:36:16.657Z,100815.56
2023-05-02T03:38:44.443Z,100824.53
2023-05-02T03:41:12.172Z,100839.31
2023-05-02T03:43:39.860Z,100853.97
2023-05-02T03:46:09.252Z,100861.19
2023-05-02T03:48:38.430Z,100866.66
2023-05-02T03:51:09.786Z,100887.41
2023-05-02T03:53:37.583Z,100892.44
2023-05-02T03:56:05.725Z,100919.59
2023-05-02T03:58:33.741Z,100950.97
2023-05-02T04:01:01.973Z,100920.00
2023-05-02T04:03:30.203Z,100939.72
2023-05-02T04:05:59.440Z,100939.69
2023-05-02T04:08:27.276Z,100955.72
2023-05-02T04:10:55.000Z,100935.78
2023-05-02T04:13:22.737Z,100976.63
2023-05-02T04:15:50.461Z,100959.25
2023-05-02T04:18:18.238Z,100988.25
2023-05-02T04:20:46.124Z,101036.81
2023-05-02T04:23:15.417Z,101072.78
2023-05-02T04:25:43.137Z,101106.66
2023-05-02T04:28:11.294Z,101168.91
2023-05-02T04:30:39.034Z,101182.13
2023-05-02T04:33:06.799Z,101200.56
2023-05-02T04:35:34.580Z,101245.88
2023-05-02T04:38:02.291Z,101312.75
2023-05-02T04:40:31.399Z,101350.97
2023-05-02T04:42:59.108Z,101356.03
2023-05-02T04:45:27.228Z,101357.59
2023-05-02T04:47:54.970Z,101373.88
2023-05-02T04:50:22.745Z,101366.25
2023-05-02T04:52:50.468Z,101395.22
2023-05-02T04:55:18.247Z,101400.59
2023-05-02T04:57:47.361Z,101409.16
2023-05-02T05:00:15.609Z,101405.28
2023-05-02T05:02:43.464Z,101424.03
2023-05-02T05:05:11.467Z,101432.06
2023-05-02T05:07:39.300Z,101448.56
2023-05-02T05:10:11.238Z,101465.66
2023-05-02T05:12:38.982Z,101457.47
2023-05-02T05:15:09.373Z,101449.72
2023-05-02T05:17:37.790Z,101444.34
2023-05-02T05:20:08.282Z,101453.94
2023-05-02T05:22:40.026Z,101490.19
2023-05-02T05:25:08.779Z,101491.94
2023-05-02T05:27:36.812Z,101502.16
2023-05-02T05:30:04.881Z,101516.69
2023-05-02T05:32:36.655Z,101536.75
2023-05-02T05:35:05.699Z,101555.41
2023-05-02T05:37:33.670Z,101586.16
2023-05-02T05:40:01.627Z,101561.50
2023-05-02T05:42:29.609Z,101566.56
2023-05-02T05:44:57.381Z,101580.88
2023-05-02T05:47:25.174Z,101596.91
2023-05-02T05:49:55.922Z,101601.16
2023-05-02T05:52:24.012Z,101621.25
2023-05-02T05:54:55.569Z,101634.91
2023-05-02T05:57:23.838Z,101638.94
2023-05-02T05:59:51.984Z,101634.22
2023-05-02T06:02:20.635Z,101659.94
2023-05-02T06:04:48.427Z,101653.16
2023-05-02T06:07:17.574Z,101650.31
2023-05-02T06:09:45.285Z,101657.81
2023-05-02T06:12:12.975Z,101677.38
2023-05-02T06:14:40.969Z,101694.81
2023-05-02T06:17:08.676Z,101685.56
2023-05-02T06:19:36.410Z,101691.97
2023-05-02T06:22:04.168Z,101686.47
2023-05-02T06:24:33.252Z,101687.00
2023-05-02T06:27:01.020Z,101700.94
2023-05-02T06:29:28.770Z,101714.72
2023-05-02T06:31:57.042Z,101707.78
2023-05-02T06:34:24.911Z,101732.78
2023-05-02T06:36:56.446Z,101717.94
2023-05-02T06:39:24.322Z,101729.13
2023-05-02T06:41:57.909Z,101741.56
2023-05-02T06:44:25.637Z,101755.84
2023-05-02T06:46:53.415Z,101760.28
2023-05-02T06:49:21.618Z,101762.34
2023-05-02T06:51:49.374Z,101766.94
2023-05-02T06:54:17.635Z,101762.41
2023-05-02T06:56:45.407Z,101783.94
2023-05-02T06:59:16.669Z,101763.44
2023-05-02T07:01:44.902Z,101770.63
2023-05-02T07:04:12.836Z,101786.97
2023-05-02T07:06:41.295Z,101801.84
2023-05-02T07:09:09.077Z,101800.34
2023-05-02T07:11:36.819Z,101808.69
2023-05-02T07:14:04.540Z,101816.97
2023-05-02T07:16:34.089Z,101822.84
2023-05-02T07:19:04.479Z,101834.44
2023-05-02T07:21:32.427Z,101837.00
2023-05-02T07:24:00.778Z,101829.38
2023-05-02T07:26:29.560Z,101829.63
2023-05-02T07:29:08.788Z,101855.44
2023-05-02T07:31:36.988Z,101833.31
2023-05-02T07:34:04.708Z,101854.41
2023-05-02T07:36:32.855Z,101855.38
2023-05-02T07:39:00.912Z,101846.88
2023-05-02T07:41:28.602Z,101871.69
2023-05-02T07:43:57.584Z,101869.56
2023-05-02T07:46:26.846Z,101867.69
2023-05-02T07:48:54.913Z,101872.22
2023-05-02T07:51:22.714Z,101877.69
2023-05-02T07:53:53.089Z,101872.19
2023-05-02T07:56:21.263Z,101878.13
2023-05-02T07:58:49.648Z,101892.47
2023-05-02T08:01:17.393Z,101882.81
2023-05-02T08:03:47.051Z,101893.03
2023-05-02T08:06:15.221Z,101890.44
2023-05-02T08:08:43.002Z,101892.78
2023-05-02T08:11:10.774Z,101898.88
2023-05-02T08:13:38.497Z,101901.78
2023-05-02T08:16:06.820Z,101921.44
2023-05-02T08:18:34.591Z,101921.09
2023-05-02T08:21:03.695Z,101912.13
2023-05-02T08:23:31.442Z,101932.25
2023-05-02T08:25:59.141Z,101928.84
2023-05-02T08:28:26.860Z,101936.97
2023-05-02T08:30:54.804Z,101925.53
2023-05-02T08:33:22.596Z,101939.72
2023-05-02T08:35:50.846Z,101946.47
2023-05-02T08:38:19.954Z,101951.44
2023-05-02T08:40:47.794Z,101940.66
2023-05-02T08:43:17.721Z,101944.47
2023-05-02T08:45:46.198Z,101953.25
2023-05-02T08:48:16.922Z,101961.72
2023-05-02T08:50:48.101Z,101954.91
2023-05-02T08:53:15.862Z,101969.50
2023-05-02T08:55:44.962Z,101972.94
2023-05-02T08:58:14.112Z,101989.38
2023-05-02T09:00:44.078Z,101975.59
2023-05-02T09:03:23.338Z,101990.63
2023-05-02T09:05:55.282Z,101982.03
2023-05-02T09:08:24.347Z,101992.94
2023-05-02T09:10:53.754Z,101995.88
2023-05-02T09:13:35.592Z,101988.38
2023-05-02T09:16:05.200Z,101994.34
2023-05-02T09:18:35.361Z,101993.84
2023-05-02T09:21:08.778Z,102005.47
2023-05-02T09:23:38.476Z,102014.13
2023-05-02T09:26:15.249Z,102008.78
2023-05-02T09:28:44.481Z,102015.16
2023-05-02T09:31:16.855Z,102021.41
2023-05-02T09:33:47.153Z,102047.97
2023-05-02T09:36:16.728Z,102044.19
2023-05-02T09:38:45.714Z,102040.16
2023-05-02T09:41:15.177Z,102037.53
2023-05-02T09:43:43.465Z,102042.94
2023-05-02T09:46:12.413Z,102056.78
2023-05-02T09:49:01.216Z,102055.72
2023-05-02T09:51:28.959Z,102063.59
2023-05-02T09:53:56.677Z,102077.09
2023-05-02T09:56:26.153Z,102076.16
2023-05-02T09:59:14.537Z,102073.75
2023-05-02T10:01:43.096Z,102078.31
2023-05-02T10:04:16.412Z,102074.09
2023-05-02T10:06:45.055Z,102083.03
2023-05-02T10:09:19.732Z,102061.56
2023-05-02T10:11:52.902Z,102069.53
2023-05-02T10:14:22.514Z,102080.22
2023-05-02T10:16:56.713Z,102101.09
2023-05-02T10:19:28.906Z,102085.34
2023-05-02T10:21:58.582Z,102093.16
2023-05-02T10:24:27.728Z,102105.19
2023-05-02T10:26:57.267Z,102092.81
2023-05-02T10:29:25.079Z,102091.31
2023-05-02T10:31:54.285Z,102091.22
2023-05-02T10:34:23.203Z,102086.25
2023-05-02T10:36:50.912Z,102084.78
2023-05-02T10:39:19.687Z,102087.78
2023-05-02T10:41:47.679Z,102086.72
2023-05-02T10:44:16.809Z,102115.75
2023-05-02T10:46:44.691Z,102114.34
2023-05-02T10:49:14.367Z,102130.22
2023-05-02T10:51:43.765Z,102125.38
2023-05-02T10:54:24.708Z,102115.59
2023-05-02T10:57:06.676Z,102120.00
2023-05-02T10:59:37.774Z,102123.00
2023-05-02T11:02:07.309Z,102113.09
2023-05-02T11:05:02.064Z,102117.78
2023-05-02T11:07:30.380Z,102116.47
2023-05-02T11:10:27.315Z,102123.34
2023-05-02T11:12:56.604Z,102116.69
2023-05-02T11:16:00.104Z,102132.34
2023-05-02T11:18:27.903Z,102125.53
2023-05-02T11:21:28.777Z,102122.19
2023-05-02T11:24:38.222Z,102124.31
2023-05-02T11:27:39.187Z,102133.19
2023-05-02T11:30:09.515Z,102133.81
2023-05-02T11:33:17.211Z,102120.91
2023-05-02T11:35:50.234Z,102137.78
2023-05-02T11:38:20.716Z,102140.06
2023-05-02T11:40:59.880Z,102142.59
2023-05-02T11:43:31.859Z,102155.50
2023-05-02T11:46:01.713Z,102152.91
2023-05-02T11:48:31.571Z,102163.81
2023-05-02T11:51:05.297Z,102168.53
2023-05-02T11:53:33.991Z,102167.78
2023-05-02T11:56:03.380Z,102154.97
2023-05-02T11:58:33.773Z,102159.63
2023-05-02T12:01:13.302Z,102153.56
2023-05-02T12:03:41.658Z,102178.34
2023-05-02T12:06:13.154Z,102159.22
2023-05-02T12:08:42.276Z,102167.69
2023-05-02T12:11:10.302Z,102169.69
2023-05-02T12:13:47.135Z,102172.00
2023-05-02T12:16:15.366Z,102167.34
2023-05-02T12:18:43.787Z,102166.44
2023-05-02T12:21:13.332Z,102166.00
2023-05-02T12:23:42.376Z,102175.31
2023-05-02T12:26:20.303Z,102169.84
2023-05-02T12:28:52.392Z,102174.44
2023-05-02T12:31:20.790Z,102179.88
2023-05-02T12:33:50.639Z,102176.63
2023-05-02T12:36:20.786Z,102179.72
2023-05-02T12:38:53.771Z,102183.75
2023-05-02T12:41:32.622Z,102191.63
2023-05-02T12:44:01.068Z,102190.75
2023-05-02T12:46:29.375Z,102189.22
2023-05-02T12:49:05.257Z,102191.13
2023-05-02T12:51:34.948Z,102198.44
2023-05-02T12:54:02.860Z,102197.94
2023-05-02T12:56:32.669Z,102203.88
2023-05-02T12:59:04.903Z,102190.84
2023-05-02T13:01:34.490Z,102205.38
2023-05-02T13:04:02.480Z,102216.00
2023-05-02T13:06:31.266Z,102197.16
2023-05-02T13:09:00.584Z,102204.28
2023-05-02T13:11:28.356Z,102200.69
2023-05-02T13:13:56.583Z,102206.03
2023-05-02T13:16:24.731Z,102195.03
2023-05-02T13:18:53.209Z,102193.91
2023-05-02T13:21:21.019Z,102209.75
2023-05-02T13:23:50.505Z,102207.78
2023-05-02T13:26:19.578Z,102207.81
2023-05-02T13:28:47.297Z,102201.44
2023-05-02T13:31:15.047Z,102200.84
2023-05-02T13:33:42.795Z,102210.94
2023-05-02T13:36:10.541Z,102220.53
2023-05-02T13:38:38.292Z,102221.81
2023-05-02T13:41:06.186Z,102208.00
2023-05-02T13:43:35.438Z,102217.75
2023-05-02T13:46:03.261Z,102228.56
2023-05-02T13:48:31.061Z,102218.72
2023-05-02T13:50:58.844Z,102216.22
2023-05-02T13:53:26.565Z,102204.47
2023-05-02T13:55:54.383Z,102208.91
2023-05-02T13:58:22.247Z,102208.78
2023-05-02T14:00:51.367Z,102215.69
2023-05-02T14:03:19.223Z,102211.34
2023-05-02T14:05:47.065Z,102225.47
2023-05-02T14:08:18.348Z,102220.03
2023-05-02T14:10:46.335Z,102234.81
2023-05-02T14:13:14.074Z,102236.91
2023-05-02T14:15:41.832Z,102239.03
2023-05-02T14:18:11.126Z,102245.03
2023-05-02T14:20:38.890Z,102252.63
2023-05-02T14:23:07.585Z,102252.16
2023-05-02T14:25:35.618Z,102238.44
2023-05-02T14:28:03.855Z,102243.84
2023-05-02T14:30:32.144Z,102240.09
2023-05-02T14:32:59.998Z,102255.41
2023-05-02T14:35:29.523Z,102251.88
2023-05-02T14:37:57.240Z,102253.78
2023-05-02T14:40:24.970Z,102254.06
2023-05-02T14:42:52.660Z,102252.06
2023-05-02T14:45:20.494Z,102256.34
2023-05-02T14:47:48.260Z,102249.06
2023-05-02T14:50:16.041Z,102257.59
2023-05-02T14:52:46.389Z,102257.34
2023-05-02T14:55:14.139Z,102252.81
2023-05-02T14:57:42.113Z,102247.81
2023-05-02T15:00:10.972Z,102247.03
2023-05-02T15:02:38.831Z,102259.41
2023-05-02T15:05:11.876Z,102251.72
2023-05-02T15:07:39.955Z,102254.63
2023-05-02T15:10:10.357Z,102260.66
2023-05-02T15:12:38.118Z,102258.28
2023-05-02T15:15:06.611Z,102267.34
2023-05-02T15:17:34.305Z,102270.28
2023-05-02T15:20:02.249Z,102277.50
2023-05-02T15:22:30.210Z,102269.59
2023-05-02T15:24:57.915Z,102259.44
2023-05-02T15:27:27.033Z,102272.19
2023-05-02T15:29:54.791Z,102275.84
2023-05-02T15:32:22.731Z,102272.88
2023-05-02T15:34:50.499Z,102282.56
2023-05-02T15:37:18.284Z,102274.16
2023-05-02T15:39:45.995Z,102292.63
2023-05-02T15:42:13.788Z,102282.03
2023-05-02T15:44:42.864Z,102289.91
2023-05-02T15:47:10.641Z,102288.28
2023-05-02T15:49:38.672Z,102280.06
2023-05-02T15:52:06.496Z,102284.78
2023-05-02T15:54:34.445Z,102287.97
2023-05-02T15:57:02.516Z,102286.66
2023-05-02T15:59:30.299Z,102284.88
2023-05-02T16:01:59.448Z,102297.78
2023-05-02T16:04:28.617Z,102300.44
2023-05-02T16:06:56.536Z,102300.66
2023-05-02T16:09:24.608Z,102300.66
2023-05-02T16:11:52.368Z,102302.91
2023-05-02T16:14:23.844Z,102306.53
2023-05-02T16:16:51.576Z,102309.16
2023-05-02T16:19:22.000Z,102310.81
2023-05-02T16:21:49.741Z,102306.31
2023-05-02T16:24:17.478Z,102299.81
2023-05-02T16:26:45.542Z,102304.22
2023-05-02T16:29:13.325Z,102300.03
2023-05-02T16:31:42.966Z,102299.72
2023-05-02T16:34:12.149Z,102311.13
2023-05-02T16:36:41.258Z,102300.28
2023-05-02T16:39:10.812Z,102304.19
2023-05-02T16:41:39.474Z,102303.75
2023-05-02T16:44:07.203Z,102305.69
2023-05-02T16:46:34.954Z,102314.69
2023-05-02T16:49:02.684Z,102307.59
2023-05-02T16:51:31.718Z,102323.25
2023-05-02T16:54:00.960Z,102321.72
2023-05-02T16:56:29.142Z,102322.13
2023-05-02T16:58:56.859Z,102332.28
2023-05-02T17:01:24.703Z,102324.88
2023-05-02T17:03:52.468Z,102318.34
2023-05-02T17:06:20.336Z,102323.91
2023-05-02T17:08:48.173Z,102328.31
2023-05-02T17:11:17.536Z,102321.13
2023-05-02T17:13:47.264Z,102334.19
2023-05-02T17:16:15.275Z,102331.19
2023-05-02T17:18:43.147Z,102334.88
2023-05-02T17:21:11.176Z,102342.03
2023-05-02T17:23:39.197Z,102343.13
2023-05-02T17:26:14.210Z,102347.72
2023-05-02T17:28:43.760Z,102356.81
2023-05-02T17:31:11.681Z,102362.84
2023-05-02T17:33:39.650Z,102362.16
2023-05-02T17:36:07.791Z,102368.63
2023-05-02T17:38:35.533Z,102364.78
2023-05-02T17:41:03.472Z,102359.81
2023-05-02T17:43:31.224Z,102362.63
2023-05-02T17:46:00.333Z,102356.78
2023-05-02T17:48:28.215Z,102371.59
2023-05-02T17:50:56.026Z,102364.34
2023-05-02T17:53:24.403Z,102375.44
2023-05-02T17:55:52.175Z,102379.91
2023-05-02T17:58:19.920Z,102370.38
2023-05-02T18:00:47.747Z,102374.34
2023-05-02T18:03:16.988Z,102376.63
2023-05-02T18:05:47.371Z,102370.94
2023-05-02T18:08:15.842Z,102372.78
2023-05-02T18:10:44.319Z,102373.75
2023-05-02T18:13:12.107Z,102386.88
2023-05-02T18:15:39.884Z,102392.66
2023-05-02T18:18:07.815Z,102395.94
2023-05-02T18:20:40.681Z,102393.88
2023-05-02T18:23:08.462Z,102394.44
2023-05-02T18:25:36.448Z,102401.22
2023-05-02T18:28:04.366Z,102398.09
2023-05-02T18:30:32.145Z,102399.34
2023-05-02T18:32:59.887Z,102396.94
2023-05-02T18:35:27.656Z,102392.00
2023-05-02T18:37:57.797Z,102399.16
2023-05-02T18:40:26.089Z,102399.53
2023-05-02T18:42:53.836Z,102412.06
2023-05-02T18:45:21.698Z,102397.69
2023-05-02T18:47:51.044Z,102399.97
2023-05-02T18:50:19.233Z,102406.78
2023-05-02T18:52:46.977Z,102400.13
2023-05-02T18:55:16.246Z,102393.34
2023-05-02T18:57:44.600Z,102406.78
2023-05-02T19:00:13.321Z,102403.28
2023-05-02T19:02:41.175Z,102395.94
2023-05-02T19:05:10.903Z,102402.75
2023-05-02T19:07:38.775Z,102403.38
2023-05-02T19:10:07.353Z,102409.34
2023-05-02T19:12:36.437Z,102410.31
2023-05-02T19:15:06.399Z,102408.81
2023-05-02T19:17:35.142Z,102419.19
2023-05-02T19:20:03.074Z,102415.81
2023-05-02T19:22:32.194Z,102419.72
2023-05-02T19:25:00.032Z,102420.97
2023-05-02T19:27:27.950Z,102428.25
2023-05-02T19:29:58.708Z,102432.47
2023-05-02T19:32:26.502Z,102444.88
2023-05-02T19:34:54.764Z,102450.47
2023-05-02T19:37:22.478Z,102456.25
2023-05-02T19:39:50.254Z,102457.22
2023-05-02T19:42:18.041Z,102457.63
2023-05-02T19:44:48.024Z,102464.19
2023-05-02T19:47:17.155Z,102461.28
2023-05-02T19:49:44.899Z,102458.09
2023-05-02T19:52:12.760Z,102453.09
2023-05-02T19:54:40.775Z,102467.50
2023-05-02T19:57:08.539Z,102472.59
2023-05-02T19:59:36.269Z,102465.84
2023-05-02T20:02:04.150Z,102476.53
2023-05-02T20:04:33.272Z,102471.41
2023-05-02T20:07:00.979Z,102472.13
2023-05-02T20:09:29.637Z,102473.63
2023-05-02T20:11:57.407Z,102468.63
2023-05-02T20:14:25.121Z,102475.03
2023-05-02T20:17:01.371Z,102481.53
2023-05-02T20:19:32.199Z,102484.75
2023-05-02T20:22:01.355Z,102485.38
2023-05-02T20:24:29.106Z,102489.84
2023-05-02T20:26:56.834Z,102486.69
2023-05-02T20:29:25.168Z,102490.41
2023-05-02T20:31:54.401Z,102496.34
2023-05-02T20:34:23.521Z,102498.06
2023-05-02T20:36:52.545Z,102493.84
2023-05-02T20:39:21.923Z,102496.34
2023-05-02T20:41:50.036Z,102494.53
2023-05-02T20:44:19.589Z,102492.78
2023-05-02T20:46:47.479Z,102494.63
2023-05-02T20:49:15.387Z,102503.66
2023-05-02T20:51:43.128Z,102507.38
2023-05-02T20:54:10.813Z,102496.50
2023-05-02T20:56:40.766Z,102498.16
2023-05-02T20:59:09.023Z,102500.31
2023-05-02T21:01:36.836Z,102493.38
2023-05-02T21:04:04.907Z,102501.13
2023-05-02T21:06:32.805Z,102502.19
2023-05-02T21:09:01.908Z,102496.16
2023-05-02T21:11:29.747Z,102504.47
2023-05-02T21:13:58.786Z,102500.38
2023-05-02T21:16:26.640Z,102504.13
2023-05-02T21:18:54.974Z,102502.53
2023-05-02T21:21:23.918Z,102508.06
2023-05-02T21:23:51.651Z,102501.53
2023-05-02T21:26:19.447Z,102505.34
2023-05-02T21:28:47.333Z,102502.50
2023-05-02T21:31:16.716Z,102496.16
2023-05-02T21:33:44.466Z,102505.50
2023-05-02T21:36:12.453Z,102503.44
2023-05-02T21:38:40.173Z,102502.59
2023-05-02T21:41:08.881Z,102502.41
2023-05-02T21:43:40.769Z,102498.25
2023-05-02T21:46:08.707Z,102508.31
2023-05-02T21:48:37.792Z,102512.28
2023-05-02T21:51:08.315Z,102516.88
2023-05-02T21:53:36.404Z,102515.84
2023-05-02T21:56:04.241Z,102521.06
2023-05-02T21:58:31.941Z,102522.69
2023-05-02T22:00:59.876Z,102515.81
2023-05-02T22:03:31.018Z,102525.69
2023-05-02T22:06:04.860Z,102523.75
2023-05-02T22:08:32.902Z,102518.72
2023-05-02T22:11:00.676Z,102520.72
2023-05-02T22:13:28.906Z,102529.50
2023-05-02T22:15:56.667Z,102528.34
2023-05-02T22:18:24.414Z,102519.94
2023-05-02T22:20:52.635Z,102529.22
2023-05-02T22:23:21.777Z,102520.63
2023-05-02T22:25:49.523Z,102528.25
2023-05-02T22:28:17.247Z,102537.09
2023-05-02T22:30:45.104Z,102536.19
2023-05-02T22:33:14.169Z,102533.69
2023-05-02T22:35:42.108Z,102526.75
2023-05-02T22:38:10.045Z,102543.69
2023-05-02T22:40:39.153Z,102541.09
2023-05-02T22:43:08.072Z,102540.16
2023-05-02T22:45:36.503Z,102547.63
2023-05-02T22:48:04.646Z,102546.97
2023-05-02T22:50:32.457Z,102546.31
2023-05-02T22:53:00.213Z,102540.88
2023-05-02T22:55:27.989Z,102546.72
2023-05-02T22:57:57.722Z,102544.81
2023-05-02T23:00:25.818Z,102549.13
2023-05-02T23:02:53.570Z,102548.72
2023-05-02T23:05:21.387Z,102533.53
2023-05-02T23:07:49.583Z,102545.31
2023-05-02T23:10:17.402Z,102543.94
2023-05-02T23:12:45.289Z,102548.03
2023-05-02T23:15:14.463Z,102550.19
2023-05-02T23:17:42.870Z,102545.47
2023-05-02T23:20:11.455Z,102547.84
2023-05-02T23:22:45.174Z,102546.88
2023-05-02T23:25:14.415Z,102542.69
2023-05-02T23:27:42.213Z,102551.09
2023-05-02T23:30:10.788Z,102538.34
2023-05-02T23:32:40.405Z,102546.88
2023-05-02T23:35:09.786Z,102542.69
2023-05-02T23:37:37.755Z,102539.22
2023-05-02T23:40:07.172Z,102532.59
2023-05-02T23:42:35.944Z,102540.56
2023-05-02T23:45:03.680Z,102531.00
2023-05-02T23:47:31.464Z,102529.69
2023-05-02T23:50:00.756Z,102523.38
2023-05-02T23:52:28.746Z,102518.44
2023-05-02T23:54:56.457Z,102521.84
2023-05-02T23:57:24.245Z,102518.31
2023-05-02T23:59:52.276Z,102519.31
